Weather History for Clinton, IA

Change the Weather History Date:

Wednesday, December 5, 2012

  Actual Average Record
Temperature  
Mean Temperature 32 °F -  
Max Temperature 39 °F 39 °F 68 °F (2001)
Min Temperature 24 °F 23 °F -5 °F (2005)
Degree Days  
Heating Degree Days 34    
Moisture  
Dew Point 20 °F    
Average Humidity 62    
Maximum Humidity 86    
Minimum Humidity 42    
Precipitation  
Precipitation 0.00 in - - ()
Sea Level Pressure  
Sea Level Pressure 30.34 in    
Wind  
Wind Speed 9 mph (ESE)    
Max Wind Speed 18 mph    
Max Gust Speed 22 mph    
Visibility 10 miles    
Events      
Averages and records for this station are not official NWS values.
T = Trace of Precipitation, MM = Missing Value Source: NWS Daily Summary

Daily Weather History Graph

Daily Weather History Graph

Search for Another Location

Airport:

Trip Planner

Search our weather history database for the weather conditions in past years. The results will help you decide how hot, cold, wet, or windy it might be!

Date:

Astronomy

Dec. 05, 2012 Rise Set
Actual Time 7:13 AM CST 4:30 PM CST
Civil Twilight 6:42 AM CST 5:01 PM CST
Nautical Twilight 6:07 AM CST 5:36 PM CST
Astronomical Twilight 5:34 AM CST 6:10 PM CST
Moon 11:24 PM CST (12/5) 11:33 AM CST (12/5)
Length of Visible Light 10h 19m
Length of Day
9h 16m
Waning Gibbous, 59% of the Moon is Illuminated
Dec 5
Waning Gibbous
Dec 6
Last Quarter
Dec 13
New
Dec 19
First Quarter
Dec 28
Full

Hourly Weather History & Observations

Time (CST) Temp. Windchill Dew Point Humidity Pressure Visibility Wind Dir Wind Speed Gust Speed Precip Events Conditions
12:15 AM 28.4 °F 21.2 °F 21.2 °F 74% 30.36 in 10.0 mi NNW 6.9 mph - N/A   Clear
12:35 AM 28.4 °F 21.2 °F 19.4 °F 69% 30.37 in 10.0 mi NW 6.9 mph - N/A   Clear
12:55 AM 28.4 °F 22.2 °F 21.2 °F 74% 30.38 in 10.0 mi NW 5.8 mph - N/A   Clear
1:15 AM 26.6 °F 20.0 °F 21.2 °F 80% 30.38 in 10.0 mi NW 5.8 mph - N/A   Clear
1:35 AM 28.4 °F 20.4 °F 21.2 °F 74% 30.41 in 10.0 mi NNW 8.1 mph - N/A   Clear
1:55 AM 26.6 °F 21.2 °F 19.4 °F 74% 30.39 in 10.0 mi NNW 4.6 mph - N/A   Clear
2:15 AM 26.6 °F 21.2 °F 19.4 °F 74% 30.40 in 10.0 mi NNW 4.6 mph - N/A   Clear
2:35 AM 26.6 °F 18.2 °F 21.2 °F 80% 30.40 in 10.0 mi North 8.1 mph - N/A   Clear
2:55 AM 26.6 °F 18.2 °F 21.2 °F 80% 30.41 in 10.0 mi North 8.1 mph - N/A   Clear
3:15 AM 24.8 °F 15.3 °F 21.2 °F 86% 30.41 in 10.0 mi North 9.2 mph - N/A   Clear
3:35 AM 24.8 °F 15.3 °F 19.4 °F 80% 30.41 in 10.0 mi NNE 9.2 mph - N/A   Clear
3:55 AM 26.6 °F 19.1 °F 19.4 °F 74% 30.40 in 10.0 mi NNE 6.9 mph - N/A   Clear
4:15 AM 24.8 °F 16.9 °F 19.4 °F 80% 30.40 in 10.0 mi NNE 6.9 mph - N/A   Clear
4:35 AM 24.8 °F 16.9 °F 19.4 °F 80% 30.40 in 10.0 mi NNE 6.9 mph - N/A   Clear
4:55 AM 24.8 °F 16.1 °F 17.6 °F 74% 30.41 in 10.0 mi NNE 8.1 mph - N/A   Clear
5:15 AM 24.8 °F 16.1 °F 17.6 °F 74% 30.41 in 10.0 mi NE 8.1 mph - N/A   Clear
5:35 AM 24.8 °F 15.3 °F 17.6 °F 74% 30.40 in 10.0 mi NE 9.2 mph - N/A   Clear
5:55 AM 24.8 °F 16.1 °F 17.6 °F 74% 30.42 in 10.0 mi NE 8.1 mph - N/A   Clear
6:15 AM 24.8 °F 16.1 °F 17.6 °F 74% 30.43 in 10.0 mi ENE 8.1 mph - N/A   Clear
6:35 AM 24.8 °F 15.3 °F 15.8 °F 69% 30.43 in 10.0 mi NE 9.2 mph - N/A   Clear
6:55 AM 24.8 °F 16.1 °F 15.8 °F 69% 30.43 in 10.0 mi ENE 8.1 mph - N/A   Clear
8:35 AM 26.6 °F 16.2 °F 15.8 °F 64% 30.44 in 10.0 mi East 11.5 mph - N/A   Clear
8:55 AM 28.4 °F 19.1 °F 15.8 °F 59% 30.45 in 10.0 mi East 10.4 mph - N/A   Clear
9:15 AM 28.4 °F 19.1 °F 15.8 °F 59% 30.45 in 10.0 mi East 10.4 mph - N/A   Clear
9:35 AM 28.4 °F 19.7 °F 17.6 °F 64% 30.46 in 10.0 mi East 9.2 mph - N/A   Clear
9:55 AM 30.2 °F 20.2 °F 17.6 °F 60% 30.44 in 10.0 mi East 12.7 mph - N/A   Clear
10:15 AM 30.2 °F 20.8 °F 17.6 °F 60% 30.44 in 10.0 mi ESE 11.5 mph - N/A   Clear
10:35 AM 32.0 °F 24.2 °F 17.6 °F 55% 30.45 in 10.0 mi ESE 9.2 mph - N/A   Clear
10:55 AM 33.8 °F 25.8 °F 17.6 °F 52% 30.44 in 10.0 mi ESE 10.4 mph - N/A   Clear
11:15 AM 33.8 °F 25.8 °F 17.6 °F 52% 30.43 in 10.0 mi ESE 10.4 mph - N/A   Clear
11:35 AM 33.8 °F 26.4 °F 17.6 °F 52% 30.41 in 10.0 mi SE 9.2 mph - N/A   Clear
11:55 AM 35.6 °F 28.0 °F 17.6 °F 48% 30.40 in 10.0 mi SE 10.4 mph - N/A   Clear
12:15 PM 35.6 °F 28.6 °F 17.6 °F 48% 30.39 in 10.0 mi ESE 9.2 mph - N/A   Clear
12:35 PM 37.4 °F 28.9 °F 17.6 °F 45% 30.38 in 10.0 mi SE 13.8 mph - N/A   Clear
1:15 PM 37.4 °F 29.8 °F 17.6 °F 45% 30.36 in 10.0 mi SE 11.5 mph - N/A   Clear
1:35 PM 39.2 °F 32.0 °F 17.6 °F 42% 30.36 in 10.0 mi ESE 11.5 mph - N/A   Clear
1:55 PM 39.2 °F 32.0 °F 17.6 °F 42% 30.35 in 10.0 mi SE 11.5 mph - N/A   Clear
2:15 PM 39.2 °F 34.2 °F 17.6 °F 42% 30.33 in 10.0 mi SE 6.9 mph - N/A   Clear
2:35 PM 39.2 °F 33.0 °F 17.6 °F 42% 30.33 in 10.0 mi SSE 9.2 mph - N/A   Clear
2:55 PM 39.2 °F 33.0 °F 17.6 °F 42% 30.33 in 10.0 mi SE 9.2 mph - N/A   Clear
3:15 PM 39.2 °F 32.5 °F 17.6 °F 42% 30.32 in 10.0 mi ESE 10.4 mph - N/A   Clear
3:35 PM 39.2 °F 32.5 °F 17.6 °F 42% 30.32 in 10.0 mi ESE 10.4 mph - N/A   Clear
3:55 PM 37.4 °F 30.8 °F 17.6 °F 45% 30.31 in 10.0 mi ESE 9.2 mph - N/A   Clear
4:15 PM 35.6 °F 28.6 °F 17.6 °F 48% 30.31 in 10.0 mi ESE 9.2 mph - N/A   Clear
4:35 PM 33.8 °F 26.4 °F 17.6 °F 52% 30.29 in 10.0 mi ESE 9.2 mph - N/A   Clear
4:55 PM 33.8 °F 27.0 °F 19.4 °F 56% 30.29 in 10.0 mi ESE 8.1 mph - N/A   Clear
5:15 PM 33.8 °F 25.8 °F 19.4 °F 56% 30.29 in 10.0 mi ESE 10.4 mph - N/A   Clear
5:35 PM 35.6 °F 28.0 °F 17.6 °F 48% 30.28 in 10.0 mi ESE 10.4 mph - N/A   Clear
5:55 PM 33.8 °F 25.8 °F 19.4 °F 56% 30.27 in 10.0 mi ESE 10.4 mph - N/A   Clear
6:15 PM 35.6 °F 27.5 °F 19.4 °F 52% 30.27 in 10.0 mi ESE 11.5 mph - N/A   Clear
6:35 PM 35.6 °F 28.0 °F 19.4 °F 52% 30.27 in 10.0 mi ESE 10.4 mph - N/A   Clear
6:55 PM 35.6 °F 27.5 °F 19.4 °F 52% 30.27 in 10.0 mi ESE 11.5 mph - N/A   Clear
7:15 PM 35.6 °F 27.1 °F 21.2 °F 56% 30.26 in 10.0 mi SE 12.7 mph - N/A   Clear
7:35 PM 35.6 °F 26.6 °F 23.0 °F 60% 30.24 in 10.0 mi SE 13.8 mph 19.6 mph N/A   Clear
7:55 PM 35.6 °F 27.1 °F 23.0 °F 60% 30.25 in 10.0 mi SE 12.7 mph - N/A   Clear
8:15 PM 35.6 °F 26.6 °F 24.8 °F 65% 30.25 in 10.0 mi SE 13.8 mph - N/A   Clear
8:35 PM 35.6 °F 26.2 °F 24.8 °F 65% 30.23 in 10.0 mi SE 15.0 mph - N/A   Clear
8:55 PM 35.6 °F 26.6 °F 24.8 °F 65% 30.22 in 10.0 mi SE 13.8 mph - N/A   Clear
9:15 PM 35.6 °F 26.2 °F 24.8 °F 65% 30.20 in 10.0 mi SE 15.0 mph - N/A   Clear
9:35 PM 35.6 °F 25.9 °F 24.8 °F 65% 30.19 in 10.0 mi SSE 16.1 mph - N/A   Clear
9:55 PM 35.6 °F 26.6 °F 24.8 °F 65% 30.19 in 10.0 mi SSE 13.8 mph - N/A   Clear
10:15 PM 35.6 °F 26.6 °F 26.6 °F 70% 30.19 in 10.0 mi SSE 13.8 mph - N/A   Clear
10:35 PM 35.6 °F 27.1 °F 26.6 °F 70% 30.19 in 10.0 mi SSE 12.7 mph - N/A   Clear
10:55 PM 35.6 °F 26.6 °F 26.6 °F 70% 30.19 in 10.0 mi SE 13.8 mph - N/A   Clear
11:15 PM 35.6 °F 25.2 °F 28.4 °F 75% 30.17 in 10.0 mi SE 18.4 mph 21.9 mph N/A   Clear
11:35 PM 35.6 °F 26.6 °F 28.4 °F 75% 30.17 in 10.0 mi SE 13.8 mph - N/A   Partly Cloudy
11:55 PM 35.6 °F 26.2 °F 28.4 °F 75% 30.16 in 10.0 mi SSE 15.0 mph - N/A   Partly Cloudy